LFLC/CFE METAR and TAF weather

Enter ICAO airport designator
Station Type Date Time Source
LFLC METAR 2019/07/15 20:00 UTC NOAA

LFLC 152000Z AUTO 35004KT CAVOK 21/08 Q1017 NOSIG


Station Type Date Time Source
LFLC Decoded METAR 2019/07/15 20:00 UTC NOAA

Clermont-Ferrand, France (LFLC) 45-47N 003-10E 330M
Jul 15, 2019 - 04:00 PM EDT / 2019.07.15 2000 UTC
Wind: from the N (350 degrees) at 5 MPH (4 KT):0
Visibility: greater than 7 mile(s):0
Temperature: 69 F (21 C)
Dew Point: 46 F (8 C)
Relative Humidity: 43%
Pressure (altimeter): 30.03 in. Hg (1017 hPa)
ob: LFLC 152000Z AUTO 35004KT CAVOK 21/08 Q1017 NOSIG
cycle: 20

Station Type Date Time Source
LFLC TAF 2019/07/15 15:25 UTC NOAA

TAF LFLC 151400Z 1515/1615 03009KT CAVOK

Example: see airport list